sensor_id;sensor_type;location;lat;lon;timestamp;P1;durP1;ratioP1;P2;durP2;ratioP2
14169;SDS011;63889;50.596;8.690;2023-04-24T00:00:16;1.77;;;0.50;;
14169;SDS011;63889;50.596;8.690;2023-04-24T00:02:42;3.17;;;0.60;;
14169;SDS011;63889;50.596;8.690;2023-04-24T00:05:12;0.77;;;0.68;;
14169;SDS011;63889;50.596;8.690;2023-04-24T00:07:39;2.17;;;0.98;;
14169;SDS011;63889;50.596;8.690;2023-04-24T00:10:09;0.73;;;0.60;;
14169;SDS011;63889;50.596;8.690;2023-04-24T00:12:34;1.85;;;0.68;;
14169;SDS011;63889;50.596;8.690;2023-04-24T00:15:01;0.88;;;0.85;;
14169;SDS011;63889;50.596;8.690;2023-04-24T00:17:26;1.65;;;0.82;;
14169;SDS011;63889;50.596;8.690;2023-04-24T00:19:52;2.63;;;0.68;;
14169;SDS011;63889;50.596;8.690;2023-04-24T00:22:23;2.27;;;0.70;;
14169;SDS011;63889;50.596;8.690;2023-04-24T00:24:49;3.58;;;0.63;;
14169;SDS011;63889;50.596;8.690;2023-04-24T00:27:15;0.88;;;0.73;;
14169;SDS011;63889;50.596;8.690;2023-04-24T00:29:41;2.40;;;1.20;;
14169;SDS011;63889;50.596;8.690;2023-04-24T00:32:06;1.90;;;0.75;;
14169;SDS011;63889;50.596;8.690;2023-04-24T00:34:32;1.00;;;0.90;;
14169;SDS011;63889;50.596;8.690;2023-04-24T00:36:57;1.30;;;0.90;;
14169;SDS011;63889;50.596;8.690;2023-04-24T00:39:23;2.72;;;0.93;;
14169;SDS011;63889;50.596;8.690;2023-04-24T00:41:49;1.98;;;0.73;;
14169;SDS011;63889;50.596;8.690;2023-04-24T00:44:15;1.13;;;0.90;;
14169;SDS011;63889;50.596;8.690;2023-04-24T00:46:41;0.90;;;0.73;;
14169;SDS011;63889;50.596;8.690;2023-04-24T00:49:07;0.70;;;0.70;;
14169;SDS011;63889;50.596;8.690;2023-04-24T00:51:33;1.75;;;0.90;;
14169;SDS011;63889;50.596;8.690;2023-04-24T00:53:59;2.85;;;0.93;;
14169;SDS011;63889;50.596;8.690;2023-04-24T00:56:25;3.90;;;0.95;;
14169;SDS011;63889;50.596;8.690;2023-04-24T00:58:51;2.55;;;1.40;;
14169;SDS011;63889;50.596;8.690;2023-04-24T01:01:20;0.90;;;0.77;;
14169;SDS011;63889;50.596;8.690;2023-04-24T01:03:47;1.55;;;0.85;;
14169;SDS011;63889;50.596;8.690;2023-04-24T01:06:15;1.65;;;0.80;;
14169;SDS011;63889;50.596;8.690;2023-04-24T01:08:41;1.50;;;0.70;;
14169;SDS011;63889;50.596;8.690;2023-04-24T01:11:08;0.88;;;0.60;;
14169;SDS011;63889;50.596;8.690;2023-04-24T01:13:34;1.30;;;0.90;;
14169;SDS011;63889;50.596;8.690;2023-04-24T01:15:59;3.55;;;0.95;;
14169;SDS011;63889;50.596;8.690;2023-04-24T01:18:26;0.80;;;0.80;;
14169;SDS011;63889;50.596;8.690;2023-04-24T01:20:53;1.77;;;1.23;;
14169;SDS011;63889;50.596;8.690;2023-04-24T01:23:21;1.95;;;0.82;;
14169;SDS011;63889;50.596;8.690;2023-04-24T01:25:48;2.85;;;1.10;;
14169;SDS011;63889;50.596;8.690;2023-04-24T01:28:14;1.42;;;0.98;;
14169;SDS011;63889;50.596;8.690;2023-04-24T01:30:41;2.15;;;1.10;;
14169;SDS011;63889;50.596;8.690;2023-04-24T01:33:06;2.22;;;0.85;;
14169;SDS011;63889;50.596;8.690;2023-04-24T01:35:32;1.92;;;0.80;;
14169;SDS011;63889;50.596;8.690;2023-04-24T01:37:58;1.80;;;0.93;;
14169;SDS011;63889;50.596;8.690;2023-04-24T01:40:23;4.40;;;0.93;;
14169;SDS011;63889;50.596;8.690;2023-04-24T01:42:49;2.83;;;1.20;;
14169;SDS011;63889;50.596;8.690;2023-04-24T01:45:15;0.70;;;0.70;;
14169;SDS011;63889;50.596;8.690;2023-04-24T01:47:41;1.30;;;0.82;;
14169;SDS011;63889;50.596;8.690;2023-04-24T01:50:07;2.50;;;0.90;;
14169;SDS011;63889;50.596;8.690;2023-04-24T01:52:33;4.97;;;0.75;;
14169;SDS011;63889;50.596;8.690;2023-04-24T01:55:00;1.75;;;0.90;;
14169;SDS011;63889;50.596;8.690;2023-04-24T01:57:25;0.85;;;0.80;;
14169;SDS011;63889;50.596;8.690;2023-04-24T01:59:51;3.50;;;1.08;;
14169;SDS011;63889;50.596;8.690;2023-04-24T02:02:17;7.95;;;1.20;;
14169;SDS011;63889;50.596;8.690;2023-04-24T02:04:43;4.07;;;1.23;;
14169;SDS011;63889;50.596;8.690;2023-04-24T02:07:08;3.63;;;1.40;;
14169;SDS011;63889;50.596;8.690;2023-04-24T02:09:34;2.58;;;1.50;;
14169;SDS011;63889;50.596;8.690;2023-04-24T02:11:59;2.53;;;1.20;;
14169;SDS011;63889;50.596;8.690;2023-04-24T02:14:25;2.33;;;1.70;;
14169;SDS011;63889;50.596;8.690;2023-04-24T02:16:51;2.05;;;1.75;;
14169;SDS011;63889;50.596;8.690;2023-04-24T02:19:16;3.22;;;1.60;;
14169;SDS011;63889;50.596;8.690;2023-04-24T02:21:42;3.22;;;1.50;;
14169;SDS011;63889;50.596;8.690;2023-04-24T02:24:08;8.45;;;2.15;;
14169;SDS011;63889;50.596;8.690;2023-04-24T02:26:33;2.97;;;2.10;;
14169;SDS011;63889;50.596;8.690;2023-04-24T02:28:59;5.00;;;1.98;;
14169;SDS011;63889;50.596;8.690;2023-04-24T02:31:25;2.90;;;1.90;;
14169;SDS011;63889;50.596;8.690;2023-04-24T02:33:50;6.82;;;2.30;;
14169;SDS011;63889;50.596;8.690;2023-04-24T02:36:16;4.28;;;1.92;;
14169;SDS011;63889;50.596;8.690;2023-04-24T02:38:41;8.05;;;2.38;;
14169;SDS011;63889;50.596;8.690;2023-04-24T02:41:07;5.22;;;2.10;;
14169;SDS011;63889;50.596;8.690;2023-04-24T02:43:32;2.95;;;1.90;;
14169;SDS011;63889;50.596;8.690;2023-04-24T02:45:58;5.60;;;2.05;;
14169;SDS011;63889;50.596;8.690;2023-04-24T02:48:24;4.03;;;2.15;;
14169;SDS011;63889;50.596;8.690;2023-04-24T02:50:50;2.78;;;1.90;;
14169;SDS011;63889;50.596;8.690;2023-04-24T02:53:16;4.10;;;2.10;;
14169;SDS011;63889;50.596;8.690;2023-04-24T02:55:41;4.90;;;1.98;;
14169;SDS011;63889;50.596;8.690;2023-04-24T02:58:07;3.33;;;2.13;;
14169;SDS011;63889;50.596;8.690;2023-04-24T03:00:32;3.17;;;1.20;;
14169;SDS011;63889;50.596;8.690;2023-04-24T03:02:58;1.75;;;1.30;;
14169;SDS011;63889;50.596;8.690;2023-04-24T03:05:24;2.38;;;1.50;;
14169;SDS011;63889;50.596;8.690;2023-04-24T03:07:49;3.60;;;1.02;;
14169;SDS011;63889;50.596;8.690;2023-04-24T03:10:17;3.90;;;1.10;;
14169;SDS011;63889;50.596;8.690;2023-04-24T03:12:43;2.67;;;1.20;;
14169;SDS011;63889;50.596;8.690;2023-04-24T03:15:09;2.30;;;0.98;;
14169;SDS011;63889;50.596;8.690;2023-04-24T03:17:34;3.22;;;1.10;;
14169;SDS011;63889;50.596;8.690;2023-04-24T03:20:00;1.70;;;0.80;;
14169;SDS011;63889;50.596;8.690;2023-04-24T03:22:26;2.78;;;0.95;;
14169;SDS011;63889;50.596;8.690;2023-04-24T03:24:52;1.10;;;0.68;;
14169;SDS011;63889;50.596;8.690;2023-04-24T03:27:17;2.35;;;0.90;;
14169;SDS011;63889;50.596;8.690;2023-04-24T03:29:43;2.17;;;0.80;;
14169;SDS011;63889;50.596;8.690;2023-04-24T03:32:08;0.77;;;0.60;;
14169;SDS011;63889;50.596;8.690;2023-04-24T03:34:34;0.98;;;0.75;;
14169;SDS011;63889;50.596;8.690;2023-04-24T03:36:59;0.80;;;0.70;;
14169;SDS011;63889;50.596;8.690;2023-04-24T03:39:25;5.95;;;0.95;;
14169;SDS011;63889;50.596;8.690;2023-04-24T03:41:51;1.27;;;0.60;;
14169;SDS011;63889;50.596;8.690;2023-04-24T03:44:16;0.95;;;0.70;;
14169;SDS011;63889;50.596;8.690;2023-04-24T03:46:42;1.05;;;0.60;;
14169;SDS011;63889;50.596;8.690;2023-04-24T03:49:07;3.00;;;0.75;;
14169;SDS011;63889;50.596;8.690;2023-04-24T03:51:33;0.70;;;0.60;;
14169;SDS011;63889;50.596;8.690;2023-04-24T03:53:58;1.48;;;0.68;;
14169;SDS011;63889;50.596;8.690;2023-04-24T03:56:24;0.70;;;0.70;;
14169;SDS011;63889;50.596;8.690;2023-04-24T03:58:49;1.20;;;1.00;;
14169;SDS011;63889;50.596;8.690;2023-04-24T04:01:15;2.38;;;0.63;;
14169;SDS011;63889;50.596;8.690;2023-04-24T04:03:41;3.22;;;0.93;;
14169;SDS011;63889;50.596;8.690;2023-04-24T04:06:06;1.95;;;0.85;;
14169;SDS011;63889;50.596;8.690;2023-04-24T04:08:32;1.17;;;0.73;;
14169;SDS011;63889;50.596;8.690;2023-04-24T04:10:57;0.98;;;0.77;;
14169;SDS011;63889;50.596;8.690;2023-04-24T04:13:23;1.35;;;0.70;;
14169;SDS011;63889;50.596;8.690;2023-04-24T04:15:49;1.30;;;1.10;;
14169;SDS011;63889;50.596;8.690;2023-04-24T04:18:14;2.00;;;0.82;;
14169;SDS011;63889;50.596;8.690;2023-04-24T04:20:40;0.75;;;0.75;;
14169;SDS011;63889;50.596;8.690;2023-04-24T04:23:06;1.85;;;0.90;;
14169;SDS011;63889;50.596;8.690;2023-04-24T04:25:31;2.05;;;0.80;;
14169;SDS011;63889;50.596;8.690;2023-04-24T04:27:57;1.25;;;1.00;;
14169;SDS011;63889;50.596;8.690;2023-04-24T04:30:24;1.42;;;1.27;;
14169;SDS011;63889;50.596;8.690;2023-04-24T04:32:50;1.73;;;1.00;;
14169;SDS011;63889;50.596;8.690;2023-04-24T04:35:16;1.20;;;1.08;;
14169;SDS011;63889;50.596;8.690;2023-04-24T04:37:41;1.80;;;1.00;;
14169;SDS011;63889;50.596;8.690;2023-04-24T04:40:07;8.10;;;1.05;;
14169;SDS011;63889;50.596;8.690;2023-04-24T04:42:36;3.15;;;1.20;;
14169;SDS011;63889;50.596;8.690;2023-04-24T04:45:05;2.45;;;1.05;;
14169;SDS011;63889;50.596;8.690;2023-04-24T04:47:34;1.55;;;1.00;;
14169;SDS011;63889;50.596;8.690;2023-04-24T04:49:59;1.15;;;1.00;;
14169;SDS011;63889;50.596;8.690;2023-04-24T04:52:25;0.98;;;0.98;;
14169;SDS011;63889;50.596;8.690;2023-04-24T04:54:51;1.33;;;0.98;;
14169;SDS011;63889;50.596;8.690;2023-04-24T04:57:17;2.17;;;1.10;;
14169;SDS011;63889;50.596;8.690;2023-04-24T04:59:42;0.80;;;0.77;;
14169;SDS011;63889;50.596;8.690;2023-04-24T05:02:08;1.42;;;1.08;;
14169;SDS011;63889;50.596;8.690;2023-04-24T05:04:34;1.15;;;1.00;;
14169;SDS011;63889;50.596;8.690;2023-04-24T05:06:59;3.75;;;1.55;;
14169;SDS011;63889;50.596;8.690;2023-04-24T05:09:25;1.45;;;1.20;;
14169;SDS011;63889;50.596;8.690;2023-04-24T05:11:52;2.80;;;1.35;;
14169;SDS011;63889;50.596;8.690;2023-04-24T05:14:18;2.38;;;1.48;;
14169;SDS011;63889;50.596;8.690;2023-04-24T05:16:44;2.70;;;1.63;;
14169;SDS011;63889;50.596;8.690;2023-04-24T05:19:09;3.97;;;1.80;;
14169;SDS011;63889;50.596;8.690;2023-04-24T05:21:36;3.45;;;1.60;;
14169;SDS011;63889;50.596;8.690;2023-04-24T05:24:02;4.53;;;1.50;;
14169;SDS011;63889;50.596;8.690;2023-04-24T05:26:27;3.13;;;1.55;;
14169;SDS011;63889;50.596;8.690;2023-04-24T05:28:53;3.13;;;1.30;;
14169;SDS011;63889;50.596;8.690;2023-04-24T05:31:19;3.92;;;1.42;;
14169;SDS011;63889;50.596;8.690;2023-04-24T05:33:44;2.67;;;1.48;;
14169;SDS011;63889;50.596;8.690;2023-04-24T05:36:10;3.38;;;1.45;;
14169;SDS011;63889;50.596;8.690;2023-04-24T05:38:35;2.28;;;1.88;;
14169;SDS011;63889;50.596;8.690;2023-04-24T05:41:01;5.43;;;1.88;;
14169;SDS011;63889;50.596;8.690;2023-04-24T05:43:27;4.53;;;1.70;;
14169;SDS011;63889;50.596;8.690;2023-04-24T05:45:52;2.58;;;1.52;;
14169;SDS011;63889;50.596;8.690;2023-04-24T05:48:18;1.92;;;1.50;;
14169;SDS011;63889;50.596;8.690;2023-04-24T05:50:44;2.30;;;1.88;;
14169;SDS011;63889;50.596;8.690;2023-04-24T05:53:10;3.42;;;1.95;;
14169;SDS011;63889;50.596;8.690;2023-04-24T05:55:36;2.53;;;1.80;;
14169;SDS011;63889;50.596;8.690;2023-04-24T05:58:01;2.50;;;1.50;;
14169;SDS011;63889;50.596;8.690;2023-04-24T06:00:27;4.97;;;1.52;;
14169;SDS011;63889;50.596;8.690;2023-04-24T06:02:53;5.13;;;1.52;;
14169;SDS011;63889;50.596;8.690;2023-04-24T06:05:19;4.30;;;1.27;;
14169;SDS011;63889;50.596;8.690;2023-04-24T06:07:44;2.60;;;1.60;;
14169;SDS011;63889;50.596;8.690;2023-04-24T06:10:10;2.50;;;1.60;;
14169;SDS011;63889;50.596;8.690;2023-04-24T06:12:36;3.80;;;1.50;;
14169;SDS011;63889;50.596;8.690;2023-04-24T06:15:02;2.30;;;1.30;;
14169;SDS011;63889;50.596;8.690;2023-04-24T06:17:28;3.38;;;1.63;;
14169;SDS011;63889;50.596;8.690;2023-04-24T06:19:54;1.75;;;1.02;;
14169;SDS011;63889;50.596;8.690;2023-04-24T06:22:19;2.25;;;1.70;;
14169;SDS011;63889;50.596;8.690;2023-04-24T06:24:45;3.38;;;1.73;;
14169;SDS011;63889;50.596;8.690;2023-04-24T06:27:12;1.88;;;1.45;;
14169;SDS011;63889;50.596;8.690;2023-04-24T06:29:37;2.42;;;1.77;;
14169;SDS011;63889;50.596;8.690;2023-04-24T06:32:03;2.75;;;1.77;;
14169;SDS011;63889;50.596;8.690;2023-04-24T06:34:28;4.10;;;1.92;;
14169;SDS011;63889;50.596;8.690;2023-04-24T06:36:55;2.90;;;1.70;;
14169;SDS011;63889;50.596;8.690;2023-04-24T06:39:21;6.95;;;3.08;;
14169;SDS011;63889;50.596;8.690;2023-04-24T06:41:47;4.32;;;2.50;;
14169;SDS011;63889;50.596;8.690;2023-04-24T06:44:12;6.20;;;2.97;;
14169;SDS011;63889;50.596;8.690;2023-04-24T06:46:39;4.28;;;2.72;;
14169;SDS011;63889;50.596;8.690;2023-04-24T06:49:05;4.35;;;2.45;;
14169;SDS011;63889;50.596;8.690;2023-04-24T06:51:31;6.55;;;2.70;;
14169;SDS011;63889;50.596;8.690;2023-04-24T06:53:57;5.72;;;2.17;;
14169;SDS011;63889;50.596;8.690;2023-04-24T06:56:23;5.55;;;2.13;;
14169;SDS011;63889;50.596;8.690;2023-04-24T06:58:50;3.92;;;2.17;;
14169;SDS011;63889;50.596;8.690;2023-04-24T07:01:16;4.43;;;2.72;;
14169;SDS011;63889;50.596;8.690;2023-04-24T07:03:42;4.45;;;2.53;;
14169;SDS011;63889;50.596;8.690;2023-04-24T07:06:08;3.72;;;2.83;;
14169;SDS011;63889;50.596;8.690;2023-04-24T07:08:36;5.82;;;2.58;;
14169;SDS011;63889;50.596;8.690;2023-04-24T07:11:01;7.30;;;2.88;;
14169;SDS011;63889;50.596;8.690;2023-04-24T07:13:27;4.30;;;2.25;;
14169;SDS011;63889;50.596;8.690;2023-04-24T07:15:53;3.42;;;2.15;;
14169;SDS011;63889;50.596;8.690;2023-04-24T07:18:21;5.35;;;2.10;;
14169;SDS011;63889;50.596;8.690;2023-04-24T07:20:46;7.07;;;2.75;;
14169;SDS011;63889;50.596;8.690;2023-04-24T07:23:12;3.50;;;2.42;;
14169;SDS011;63889;50.596;8.690;2023-04-24T07:25:38;3.50;;;2.17;;
14169;SDS011;63889;50.596;8.690;2023-04-24T07:28:04;4.53;;;3.10;;
14169;SDS011;63889;50.596;8.690;2023-04-24T07:30:30;4.75;;;2.55;;
14169;SDS011;63889;50.596;8.690;2023-04-24T07:32:57;4.55;;;3.10;;
14169;SDS011;63889;50.596;8.690;2023-04-24T07:35:23;8.25;;;3.00;;
14169;SDS011;63889;50.596;8.690;2023-04-24T07:37:50;4.05;;;3.00;;
14169;SDS011;63889;50.596;8.690;2023-04-24T07:40:19;3.50;;;2.63;;
14169;SDS011;63889;50.596;8.690;2023-04-24T07:42:45;5.20;;;2.85;;
14169;SDS011;63889;50.596;8.690;2023-04-24T07:45:13;5.82;;;3.28;;
14169;SDS011;63889;50.596;8.690;2023-04-24T07:47:39;4.75;;;2.80;;
14169;SDS011;63889;50.596;8.690;2023-04-24T07:50:08;3.83;;;2.72;;
14169;SDS011;63889;50.596;8.690;2023-04-24T07:52:34;4.32;;;2.58;;
14169;SDS011;63889;50.596;8.690;2023-04-24T07:54:59;4.53;;;2.33;;
14169;SDS011;63889;50.596;8.690;2023-04-24T07:57:26;6.90;;;2.55;;
14169;SDS011;63889;50.596;8.690;2023-04-24T07:59:52;4.68;;;2.28;;
14169;SDS011;63889;50.596;8.690;2023-04-24T08:02:18;8.13;;;2.53;;
14169;SDS011;63889;50.596;8.690;2023-04-24T08:04:43;3.45;;;2.30;;
14169;SDS011;63889;50.596;8.690;2023-04-24T08:07:09;4.40;;;2.70;;
14169;SDS011;63889;50.596;8.690;2023-04-24T08:09:35;4.68;;;2.33;;
14169;SDS011;63889;50.596;8.690;2023-04-24T08:12:00;3.40;;;2.33;;
14169;SDS011;63889;50.596;8.690;2023-04-24T08:14:27;3.08;;;2.60;;
14169;SDS011;63889;50.596;8.690;2023-04-24T08:16:55;5.40;;;2.05;;
14169;SDS011;63889;50.596;8.690;2023-04-24T08:19:21;4.32;;;2.35;;
14169;SDS011;63889;50.596;8.690;2023-04-24T08:21:47;3.42;;;2.35;;
14169;SDS011;63889;50.596;8.690;2023-04-24T08:24:12;5.53;;;2.65;;
14169;SDS011;63889;50.596;8.690;2023-04-24T08:26:38;2.95;;;2.13;;
14169;SDS011;63889;50.596;8.690;2023-04-24T08:29:04;3.67;;;2.33;;
14169;SDS011;63889;50.596;8.690;2023-04-24T08:31:31;2.80;;;1.60;;
14169;SDS011;63889;50.596;8.690;2023-04-24T08:33:57;4.15;;;2.05;;
14169;SDS011;63889;50.596;8.690;2023-04-24T08:36:23;3.50;;;2.50;;
14169;SDS011;63889;50.596;8.690;2023-04-24T08:38:49;2.60;;;1.67;;
14169;SDS011;63889;50.596;8.690;2023-04-24T08:41:15;3.22;;;2.22;;
14169;SDS011;63889;50.596;8.690;2023-04-24T08:43:42;4.53;;;2.17;;
14169;SDS011;63889;50.596;8.690;2023-04-24T08:46:09;6.55;;;1.80;;
14169;SDS011;63889;50.596;8.690;2023-04-24T08:48:36;3.75;;;1.70;;
14169;SDS011;63889;50.596;8.690;2023-04-24T08:51:03;3.40;;;1.98;;
14169;SDS011;63889;50.596;8.690;2023-04-24T08:53:32;3.75;;;2.20;;
14169;SDS011;63889;50.596;8.690;2023-04-24T08:55:59;6.55;;;2.00;;
14169;SDS011;63889;50.596;8.690;2023-04-24T08:58:26;2.85;;;2.17;;
14169;SDS011;63889;50.596;8.690;2023-04-24T09:00:56;3.78;;;1.80;;
14169;SDS011;63889;50.596;8.690;2023-04-24T09:03:22;4.65;;;2.30;;
14169;SDS011;63889;50.596;8.690;2023-04-24T09:05:49;5.10;;;1.80;;
14169;SDS011;63889;50.596;8.690;2023-04-24T09:08:16;3.20;;;2.05;;
14169;SDS011;63889;50.596;8.690;2023-04-24T09:10:44;3.78;;;1.80;;
14169;SDS011;63889;50.596;8.690;2023-04-24T09:13:09;2.88;;;2.03;;
14169;SDS011;63889;50.596;8.690;2023-04-24T09:15:36;5.25;;;1.88;;
14169;SDS011;63889;50.596;8.690;2023-04-24T09:18:02;6.07;;;2.13;;
14169;SDS011;63889;50.596;8.690;2023-04-24T09:20:29;2.88;;;2.08;;
14169;SDS011;63889;50.596;8.690;2023-04-24T09:22:55;5.07;;;1.95;;
14169;SDS011;63889;50.596;8.690;2023-04-24T09:25:22;2.50;;;1.70;;
14169;SDS011;63889;50.596;8.690;2023-04-24T09:28:02;2.53;;;1.95;;
14169;SDS011;63889;50.596;8.690;2023-04-24T09:30:29;6.73;;;1.63;;
14169;SDS011;63889;50.596;8.690;2023-04-24T09:35:40;2.38;;;1.60;;
14169;SDS011;63889;50.596;8.690;2023-04-24T09:38:06;2.42;;;1.45;;
14169;SDS011;63889;50.596;8.690;2023-04-24T09:40:33;3.60;;;1.80;;
14169;SDS011;63889;50.596;8.690;2023-04-24T09:42:59;2.67;;;1.60;;
14169;SDS011;63889;50.596;8.690;2023-04-24T09:45:28;1.95;;;1.45;;
14169;SDS011;63889;50.596;8.690;2023-04-24T09:47:59;3.38;;;1.30;;
14169;SDS011;63889;50.596;8.690;2023-04-24T09:50:25;1.90;;;1.38;;
14169;SDS011;63889;50.596;8.690;2023-04-24T09:55:24;3.00;;;2.05;;
14169;SDS011;63889;50.596;8.690;2023-04-24T09:57:51;3.92;;;1.70;;
14169;SDS011;63889;50.596;8.690;2023-04-24T10:00:18;6.40;;;2.10;;
14169;SDS011;63889;50.596;8.690;2023-04-24T10:02:51;2.60;;;1.95;;
14169;SDS011;63889;50.596;8.690;2023-04-24T10:05:23;3.67;;;2.38;;
14169;SDS011;63889;50.596;8.690;2023-04-24T10:07:49;2.60;;;1.88;;
14169;SDS011;63889;50.596;8.690;2023-04-24T10:10:15;4.65;;;2.30;;
14169;SDS011;63889;50.596;8.690;2023-04-24T10:12:41;2.53;;;1.40;;
14169;SDS011;63889;50.596;8.690;2023-04-24T10:15:09;2.67;;;1.58;;
14169;SDS011;63889;50.596;8.690;2023-04-24T10:17:37;2.50;;;1.27;;
14169;SDS011;63889;50.596;8.690;2023-04-24T10:20:04;3.10;;;1.70;;
14169;SDS011;63889;50.596;8.690;2023-04-24T10:22:31;1.98;;;1.75;;
14169;SDS011;63889;50.596;8.690;2023-04-24T10:24:57;4.93;;;2.25;;
14169;SDS011;63889;50.596;8.690;2023-04-24T10:27:24;2.03;;;1.30;;
14169;SDS011;63889;50.596;8.690;2023-04-24T10:29:52;1.05;;;0.80;;
14169;SDS011;63889;50.596;8.690;2023-04-24T10:32:18;1.52;;;1.08;;
14169;SDS011;63889;50.596;8.690;2023-04-24T10:34:44;1.10;;;0.73;;
14169;SDS011;63889;50.596;8.690;2023-04-24T10:37:10;2.78;;;0.63;;
14169;SDS011;63889;50.596;8.690;2023-04-24T10:39:35;1.45;;;0.70;;
14169;SDS011;63889;50.596;8.690;2023-04-24T10:42:02;0.80;;;0.50;;
14169;SDS011;63889;50.596;8.690;2023-04-24T10:44:40;1.05;;;0.55;;
14169;SDS011;63889;50.596;8.690;2023-04-24T10:47:05;0.88;;;0.60;;
14169;SDS011;63889;50.596;8.690;2023-04-24T10:49:38;3.20;;;0.70;;
14169;SDS011;63889;50.596;8.690;2023-04-24T10:52:05;0.82;;;0.50;;
14169;SDS011;63889;50.596;8.690;2023-04-24T10:54:41;1.85;;;0.68;;
14169;SDS011;63889;50.596;8.690;2023-04-24T10:59:45;0.47;;;0.47;;
14169;SDS011;63889;50.596;8.690;2023-04-24T11:02:15;0.90;;;0.57;;
14169;SDS011;63889;50.596;8.690;2023-04-24T11:04:42;0.90;;;0.55;;
14169;SDS011;63889;50.596;8.690;2023-04-24T11:07:09;2.08;;;0.63;;
14169;SDS011;63889;50.596;8.690;2023-04-24T11:09:35;0.22;;;0.22;;
14169;SDS011;63889;50.596;8.690;2023-04-24T11:12:11;0.35;;;0.30;;
14169;SDS011;63889;50.596;8.690;2023-04-24T11:17:29;0.30;;;0.30;;
14169;SDS011;63889;50.596;8.690;2023-04-24T11:20:07;0.38;;;0.38;;
14169;SDS011;63889;50.596;8.690;2023-04-24T11:22:37;0.20;;;0.20;;
14169;SDS011;63889;50.596;8.690;2023-04-24T11:25:07;0.52;;;0.20;;
14169;SDS011;63889;50.596;8.690;2023-04-24T11:27:43;0.63;;;0.20;;
14169;SDS011;63889;50.596;8.690;2023-04-24T11:30:11;0.35;;;0.30;;
14169;SDS011;63889;50.596;8.690;2023-04-24T11:37:42;3.10;;;0.40;;
14169;SDS011;63889;50.596;8.690;2023-04-24T11:40:11;0.30;;;0.30;;
14169;SDS011;63889;50.596;8.690;2023-04-24T11:42:42;3.22;;;0.35;;
14169;SDS011;63889;50.596;8.690;2023-04-24T11:45:10;0.20;;;0.20;;
14169;SDS011;63889;50.596;8.690;2023-04-24T11:47:49;1.10;;;0.10;;
14169;SDS011;63889;50.596;8.690;2023-04-24T11:50:16;0.20;;;0.20;;
14169;SDS011;63889;50.596;8.690;2023-04-24T11:52:43;0.38;;;0.20;;
14169;SDS011;63889;50.596;8.690;2023-04-24T11:57:52;0.47;;;0.20;;
14169;SDS011;63889;50.596;8.690;2023-04-24T12:00:22;0.15;;;0.10;;
14169;SDS011;63889;50.596;8.690;2023-04-24T12:02:59;0.55;;;0.25;;
14169;SDS011;63889;50.596;8.690;2023-04-24T12:05:30;0.88;;;0.40;;
14169;SDS011;63889;50.596;8.690;2023-04-24T12:07:56;0.65;;;0.55;;
14169;SDS011;63889;50.596;8.690;2023-04-24T12:10:22;2.55;;;0.35;;
14169;SDS011;63889;50.596;8.690;2023-04-24T12:12:49;0.43;;;0.35;;
14169;SDS011;63889;50.596;8.690;2023-04-24T12:15:16;0.25;;;0.20;;
14169;SDS011;63889;50.596;8.690;2023-04-24T12:17:43;0.20;;;0.20;;
14169;SDS011;63889;50.596;8.690;2023-04-24T12:20:09;0.10;;;0.10;;
14169;SDS011;63889;50.596;8.690;2023-04-24T12:22:50;4.25;;;1.83;;
14169;SDS011;63889;50.596;8.690;2023-04-24T12:25:19;1.27;;;0.10;;
14169;SDS011;63889;50.596;8.690;2023-04-24T12:27:51;0.30;;;0.30;;
14169;SDS011;63889;50.596;8.690;2023-04-24T12:30:18;0.70;;;0.40;;
14169;SDS011;63889;50.596;8.690;2023-04-24T12:32:45;1.17;;;0.45;;
14169;SDS011;63889;50.596;8.690;2023-04-24T12:35:12;0.88;;;0.43;;
14169;SDS011;63889;50.596;8.690;2023-04-24T12:37:41;0.52;;;0.47;;
14169;SDS011;63889;50.596;8.690;2023-04-24T12:40:09;0.55;;;0.40;;
14169;SDS011;63889;50.596;8.690;2023-04-24T12:42:35;1.15;;;0.50;;
14169;SDS011;63889;50.596;8.690;2023-04-24T12:45:07;2.47;;;0.82;;
14169;SDS011;63889;50.596;8.690;2023-04-24T12:47:33;2.17;;;1.20;;
14169;SDS011;63889;50.596;8.690;2023-04-24T12:49:59;3.17;;;1.45;;
14169;SDS011;63889;50.596;8.690;2023-04-24T12:52:26;3.65;;;1.67;;
14169;SDS011;63889;50.596;8.690;2023-04-24T12:54:54;4.82;;;1.65;;
14169;SDS011;63889;50.596;8.690;2023-04-24T12:57:22;3.63;;;1.77;;
14169;SDS011;63889;50.596;8.690;2023-04-24T12:59:48;3.45;;;1.55;;
14169;SDS011;63889;50.596;8.690;2023-04-24T13:02:14;3.13;;;1.55;;
14169;SDS011;63889;50.596;8.690;2023-04-24T13:04:43;5.22;;;2.05;;
14169;SDS011;63889;50.596;8.690;2023-04-24T13:07:11;5.20;;;2.45;;
14169;SDS011;63889;50.596;8.690;2023-04-24T13:09:37;3.55;;;1.85;;
14169;SDS011;63889;50.596;8.690;2023-04-24T13:12:03;4.50;;;1.88;;
14169;SDS011;63889;50.596;8.690;2023-04-24T13:14:30;2.30;;;1.30;;
14169;SDS011;63889;50.596;8.690;2023-04-24T13:16:56;6.07;;;1.90;;
14169;SDS011;63889;50.596;8.690;2023-04-24T13:19:23;2.28;;;1.77;;
14169;SDS011;63889;50.596;8.690;2023-04-24T13:21:51;2.35;;;1.65;;
14169;SDS011;63889;50.596;8.690;2023-04-24T13:24:17;2.65;;;1.55;;
14169;SDS011;63889;50.596;8.690;2023-04-24T13:26:42;5.20;;;2.28;;
14169;SDS011;63889;50.596;8.690;2023-04-24T13:29:08;5.40;;;1.63;;
14169;SDS011;63889;50.596;8.690;2023-04-24T13:31:34;2.30;;;1.83;;
14169;SDS011;63889;50.596;8.690;2023-04-24T13:34:00;2.03;;;1.70;;
14169;SDS011;63889;50.596;8.690;2023-04-24T13:36:26;4.15;;;2.10;;
14169;SDS011;63889;50.596;8.690;2023-04-24T13:38:52;4.45;;;1.85;;
14169;SDS011;63889;50.596;8.690;2023-04-24T13:41:18;3.50;;;2.03;;
14169;SDS011;63889;50.596;8.690;2023-04-24T13:43:43;7.78;;;2.30;;
14169;SDS011;63889;50.596;8.690;2023-04-24T13:46:09;12.38;;;2.10;;
14169;SDS011;63889;50.596;8.690;2023-04-24T13:48:35;3.63;;;1.77;;
14169;SDS011;63889;50.596;8.690;2023-04-24T13:51:00;2.17;;;1.70;;
14169;SDS011;63889;50.596;8.690;2023-04-24T13:53:26;3.45;;;1.77;;
14169;SDS011;63889;50.596;8.690;2023-04-24T13:55:51;4.65;;;1.90;;
14169;SDS011;63889;50.596;8.690;2023-04-24T13:58:17;6.07;;;1.73;;
14169;SDS011;63889;50.596;8.690;2023-04-24T14:00:42;3.63;;;1.88;;
14169;SDS011;63889;50.596;8.690;2023-04-24T14:03:08;3.28;;;1.83;;
14169;SDS011;63889;50.596;8.690;2023-04-24T14:05:33;2.97;;;1.95;;
14169;SDS011;63889;50.596;8.690;2023-04-24T14:07:59;3.20;;;1.20;;
14169;SDS011;63889;50.596;8.690;2023-04-24T14:10:25;2.67;;;1.95;;
14169;SDS011;63889;50.596;8.690;2023-04-24T14:12:52;1.90;;;1.48;;
14169;SDS011;63889;50.596;8.690;2023-04-24T14:15:18;4.30;;;1.85;;
14169;SDS011;63889;50.596;8.690;2023-04-24T14:17:43;1.98;;;1.23;;
14169;SDS011;63889;50.596;8.690;2023-04-24T14:20:09;2.88;;;1.23;;
14169;SDS011;63889;50.596;8.690;2023-04-24T14:22:35;2.80;;;1.38;;
14169;SDS011;63889;50.596;8.690;2023-04-24T14:25:01;2.05;;;1.30;;
14169;SDS011;63889;50.596;8.690;2023-04-24T14:27:26;3.55;;;1.20;;
14169;SDS011;63889;50.596;8.690;2023-04-24T14:29:52;3.83;;;1.95;;
14169;SDS011;63889;50.596;8.690;2023-04-24T14:32:17;2.72;;;1.45;;
14169;SDS011;63889;50.596;8.690;2023-04-24T14:34:43;4.40;;;1.80;;
14169;SDS011;63889;50.596;8.690;2023-04-24T14:37:09;3.45;;;1.58;;
14169;SDS011;63889;50.596;8.690;2023-04-24T14:39:35;4.30;;;1.67;;
14169;SDS011;63889;50.596;8.690;2023-04-24T14:42:01;3.15;;;1.45;;
14169;SDS011;63889;50.596;8.690;2023-04-24T14:44:27;3.75;;;1.63;;
14169;SDS011;63889;50.596;8.690;2023-04-24T14:46:52;3.42;;;1.70;;
14169;SDS011;63889;50.596;8.690;2023-04-24T14:49:18;7.97;;;2.00;;
14169;SDS011;63889;50.596;8.690;2023-04-24T14:51:43;2.85;;;1.58;;
14169;SDS011;63889;50.596;8.690;2023-04-24T14:54:09;2.95;;;1.95;;
14169;SDS011;63889;50.596;8.690;2023-04-24T14:56:35;3.90;;;2.00;;
14169;SDS011;63889;50.596;8.690;2023-04-24T14:59:00;5.38;;;1.92;;
14169;SDS011;63889;50.596;8.690;2023-04-24T15:01:26;4.18;;;2.28;;